Battambang, Cambodia

9:56 AM ICT on August 02, 2014 (GMT +0700)
Siem Reap (VDSR) Elev 49 ft | 13.37 °N, 103.85 °E | Change Station

Current weather conditions updated 26 minutes ago

Scattered Clouds
Scattered Clouds
82 °F
Feels Like 91 °F
N
4
Wind Variable Wind from Variable

Today is forecast to be Cooler than yesterday. Thunderstorms.

Today
High -- | Low -- °F
--% Chance of Precip.
Yesterday
High -- | Low -- °F
Precip. -- in
5:52 AM 6:34 PM
Waxing Crescent, 31% visible
Pressure 29.71 in
Visibility 6.2 miles
Clouds Scattered Clouds 1500 ft
Scattered Clouds 12000 ft
Heat Index 91 °F
Dew Point 77 °F
Humidity 84%
Rainfall 0.00 in
Snow Depth Not available.
UV 9 out of 12
Pollen Not available.
Air Quality Not available.
Flu Activity Not available.
METAR VDSR 020230Z VRB03KT 9999 SCT015 SCT120 28/25 Q1006

More Conditions Fewer Conditions

Pressure 29.71 in
Visibility 6.2 miles
Clouds Scattered Clouds 1500 ft
Scattered Clouds 12000 ft
Heat Index 91 °F
Dew Point 77 °F
Humidity 84%
Rainfall 0.00 in
Snow Depth Not available.
UV 9 out of 12
Pollen Not available.
Air Quality Not available.
Flu Activity Not available.
METAR VDSR 020230Z VRB03KT 9999 SCT015 SCT120 28/25 Q1006

More Conditions Fewer Conditions

10-Day Weather Forecast

Almanac

Astronomy

Aug. 02, 2014 Rise Set
Actual Time 5:52 AM ICT 6:34 PM ICT
Civil Twilight 5:30 AM ICT 6:56 PM ICT
Nautical Twilight 5:03 AM ICT 7:22 PM ICT
Astronomical Twilight 4:37 AM ICT 7:49 PM ICT
Moon 10:37 AM ICT 10:43 PM ICT
Length of Visible Light 13h 26m
Length of Day
12h 41m
Tomorrow will be 0m 33s shorter.
Waxing Crescent, 31% of the Moon is Illuminated
Aug 1
Waxing Crescent
Aug 3
First Quarter
Aug 10
Full
Aug 17
Last Quarter
Aug 25
New

Yesterday's Extremes

Country Highs Country Lows

Community

WunderPhotos

Upload Photos

1,739,813 photos uploaded!

Nearby

Snow Depth

Not available.

Earthquake Activity

City Distance Mag. Time & Date
No recent earthquake activity has been reported nearby.
Minimum magnitude displayed is 2.5.

Coastal Water Temperatures

Place Temperature
No Stations Reporting

Nearby Weather Stations

There are no personal weather stations in this area.